Southeastern Grand Banks: Past 24 Hour Conditions

 

Banquereau - 44139

08:00 PM AST 22 November 2014Buoy position: 44.27N 57.08W
This table is a summary of hourly weather conditions for the past 24 hours.
Date / Time
(AST)
Wind(knots) Wave height(m) Wave period(s) Pressure(kPa) Air tempC) Water tempC)
22 November 2014
20:00 W 25 gust 31 3.8 11.0 101.7 4 9
19:00 W 25 gust 31 4.1 10.0 101.7 4 9
18:00 W 23 gust 29 4.5 11.0 101.8 3 9
17:00 W 25 gust 31 4.5 11.0 101.8 2 9
16:00 W 25 gust 31 4.8 10.0 101.8 2 9
15:00 N/A N/A N/A N/A N/A N/A
14:00 W 27 gust 33 5.3 10.0 101.7 2 9
13:00 W 29 gust 35 5.7 11.0 101.7 2 9
12:00 W 29 gust 35 5.9 11.0 101.7 2 9
11:00 WNW 27 gust 35 5.1 10.0 101.7 1 9
10:00 WNW 29 gust 35 5.2 9.0 101.7 1 9
9:00 WNW 27 gust 35 4.9 9.0 101.6 2 9
8:00 WNW 29 gust 39 4.9 9.0 101.5 2 9
7:00 WNW 29 gust 37 4.8 8.0 101.4 2 9
6:00 WNW 29 gust 39 4.5 8.0 101.3 1 9
5:00 W 29 gust 35 4.2 8.0 101.2 1 9
4:00 WNW 27 gust 37 3.8 8.0 101.1 1 9
3:00 W 25 gust 33 3.7 8.0 101.0 1 9
2:00 W 19 gust 25 3.9 8.0 101.0 1 9
1:00 WNW 27 gust 37 3.5 8.0 100.9 2 9
0:00 WNW 25 3.2 8.0 100.8 3 9
21 November 2014
23:00 WNW 25 gust 31 3.0 8.0 100.8 3 9
22:00 WNW 21 gust 29 3.2 9.0 100.8 3 9
21:00 WNW 21 gust 27 3.1 8.0 100.7 4 9
20:00 WNW 23 gust 31 3.1 7.0 100.7 4 9
 
Map of Atlantic - Newfoundland marine weather areas Southwestern Grand Banks - 44138 Banquereau - 44139 Tail of the Bank - 44140 Nickerson Bank - 44251 Northeast Burgeo Bank - 44255 Blanc-Sablon Airport Cap Whittle Chevery Natashquan Airport Heath Point Miscou Island Grand Étang Ingonish Beach North Mountain St.Paul Island J.A. Douglas McCurdy Sydney Airport Charlottetown Airport East Point North Cape Argentia Bonavista Burgeo Cape Race Corner Brook Daniel's Harbour Englee Ferolle Point La Scie Port aux Basques Rocky Harbour Sagona Island St. Anthony Airport St. John's Int'l Airport St. Lawrence Stephenville Airport Twillingate Winterland Wreckhouse Cartwright Airport Mary's Harbour Grates Cove Pool's Island Marticot Island Long Pond Îles de la Madeleine Airport
Legend: buoyBuoy land stationLand Station